Ana Sayfa
METAR-TAF:

METAR-TAF

Havaalanları :

Groote Eylandt, Avustralya

Enlem: 13-58-30S, Boylam: 136-27-36E, yükseklik: 16 m

Güncel hava durumu gözlemi

Rapor saat 07:00 UTC de 37 dakika önce yapıldı.
Rüzgar batıdan 7 kt
Sıcaklık 35°C
Nem 47%
Basınç 1005 hPa
Görüş mesafesi 10 km veya daha fazla

METAR: YGTE 140700Z AUTO 27007KT 9999 // NCD 35/22 Q1005

Saat: 17:07 (07:37 UTC)


TAF: eksik

4.000'den fazla havaalanı için hava durumu gözlemleri ve tahminleri (METAR ve TAF raporları).

Kullanılabilir istasyonlar harita üzerinde sarı ve kırmızı noktalarla gösterilir.

İstasyonun adını görmek için fareyi noktanın üzerinde gezdirin.

Sonrasında hava gözlem ve tahminlerini görmek için tıklayın.

Haritayı değiştirmek için: yaklaştırmak için siyah artı işaretli yeşil düğmeye ve uzaklaştırmak için de eksi işaretli düğmeye hızla tıklayın; bitişik haritalar için yeşil okları kullanın.


METAR-TAF: